createdAt,value
2022-11-20T00:02:59.002Z,63.65
2022-11-20T00:07:52.857Z,63.72
2022-11-20T00:12:46.888Z,63.71
2022-11-20T00:17:40.610Z,63.83
2022-11-20T00:22:35.353Z,63.97
2022-11-20T00:27:29.097Z,63.47
2022-11-20T00:32:23.086Z,63.75
2022-11-20T00:37:20.420Z,63.95
2022-11-20T00:42:14.260Z,63.75
2022-11-20T00:47:11.535Z,64.25
2022-11-20T00:52:07.042Z,63.79
2022-11-20T00:57:00.474Z,64.09
2022-11-20T01:01:54.425Z,64.04
2022-11-20T01:06:47.942Z,63.94
2022-11-20T01:11:44.367Z,63.98
2022-11-20T01:16:59.130Z,63.71
2022-11-20T01:21:55.616Z,63.90
2022-11-20T01:26:51.583Z,63.70
2022-11-20T01:31:45.480Z,63.89
2022-11-20T01:36:39.349Z,63.63
2022-11-20T01:41:51.836Z,63.61
2022-11-20T01:46:54.623Z,63.56
2022-11-20T01:51:53.078Z,63.79
2022-11-20T01:56:47.383Z,63.66
2022-11-20T02:01:40.768Z,63.57
2022-11-20T02:06:41.775Z,63.78
2022-11-20T02:11:35.150Z,63.92
2022-11-20T02:16:49.469Z,63.72
2022-11-20T02:21:51.310Z,63.79
2022-11-20T02:26:54.991Z,63.84
2022-11-20T02:31:49.620Z,63.60
2022-11-20T02:36:44.399Z,63.29
2022-11-20T02:41:39.315Z,63.57
2022-11-20T02:46:33.800Z,63.30
2022-11-20T02:51:27.648Z,63.24
2022-11-20T02:56:21.431Z,63.37
2022-11-20T03:01:14.802Z,63.47
2022-11-20T03:06:08.709Z,63.53
2022-11-20T03:11:08.219Z,63.06
2022-11-20T03:16:07.987Z,63.14
2022-11-20T03:21:01.246Z,63.19
2022-11-20T03:25:54.774Z,62.92
2022-11-20T03:30:48.526Z,62.97
2022-11-20T03:35:42.315Z,63.24
2022-11-20T03:40:37.206Z,63.30
2022-11-20T03:45:30.964Z,63.44
2022-11-20T03:50:24.625Z,63.44
2022-11-20T03:55:18.405Z,63.08
2022-11-20T04:00:15.884Z,63.19
2022-11-20T04:05:14.041Z,63.13
2022-11-20T04:10:08.463Z,62.90
2022-11-20T04:15:03.240Z,63.16
2022-11-20T04:19:57.808Z,62.81
2022-11-20T04:24:51.914Z,62.85
2022-11-20T04:29:46.478Z,62.90
2022-11-20T04:34:39.133Z,62.96
2022-11-20T04:39:34.321Z,62.89
2022-11-20T04:44:34.031Z,62.80
2022-11-20T04:49:28.147Z,63.07
2022-11-20T04:54:24.913Z,62.79
2022-11-20T04:59:19.398Z,62.51
2022-11-20T05:04:12.907Z,62.59
2022-11-20T05:09:06.180Z,62.73
2022-11-20T05:14:00.859Z,62.59
2022-11-20T05:18:55.663Z,62.56
2022-11-20T05:23:49.372Z,62.70
2022-11-20T05:28:42.877Z,62.57
2022-11-20T05:33:40.835Z,62.75
2022-11-20T05:38:34.078Z,62.65
2022-11-20T05:43:27.997Z,62.60
2022-11-20T05:48:22.192Z,62.71
2022-11-20T05:53:16.644Z,62.72
2022-11-20T05:58:10.239Z,62.70
2022-11-20T06:03:07.832Z,62.75
2022-11-20T06:08:03.262Z,62.54
2022-11-20T06:12:59.425Z,62.78
2022-11-20T06:17:55.958Z,62.68
2022-11-20T06:22:48.958Z,62.56
2022-11-20T06:27:42.979Z,62.40
2022-11-20T06:32:36.351Z,62.82
2022-11-20T06:37:29.980Z,62.67
2022-11-20T06:42:24.086Z,62.28
2022-11-20T06:47:17.683Z,62.13
2022-11-20T06:52:15.292Z,62.49
2022-11-20T06:57:09.262Z,62.23
2022-11-20T07:02:05.538Z,62.38
2022-11-20T07:06:59.476Z,62.69
2022-11-20T07:11:52.893Z,62.32
2022-11-20T07:16:47.023Z,62.41
2022-11-20T07:21:44.211Z,62.35
2022-11-20T07:26:38.737Z,62.18
2022-11-20T07:31:31.854Z,62.59
2022-11-20T07:36:26.111Z,62.65
2022-11-20T07:41:20.013Z,62.59
2022-11-20T07:46:12.981Z,62.80
2022-11-20T07:51:06.682Z,61.35
2022-11-20T07:56:04.018Z,58.39
2022-11-20T08:00:58.395Z,52.79
2022-11-20T08:05:52.487Z,47.58
2022-11-20T08:10:46.041Z,47.35
2022-11-20T08:15:40.689Z,55.46
2022-11-20T08:20:34.606Z,56.10
2022-11-20T08:25:29.491Z,57.73
2022-11-20T08:30:22.415Z,57.60
2022-11-20T08:35:17.248Z,57.99
2022-11-20T08:40:19.482Z,58.58
2022-11-20T08:45:13.628Z,59.30
2022-11-20T08:50:09.986Z,59.94
2022-11-20T08:55:04.066Z,60.39
2022-11-20T09:00:06.514Z,60.82
2022-11-20T09:05:00.675Z,61.22
2022-11-20T09:10:10.009Z,61.55
2022-11-20T09:15:08.289Z,61.56
2022-11-20T09:20:02.448Z,61.35
2022-11-20T09:24:56.253Z,61.82
2022-11-20T09:29:50.246Z,62.30
2022-11-20T09:34:42.772Z,62.25
2022-11-20T09:39:40.344Z,62.23
2022-11-20T09:44:51.857Z,62.42
2022-11-20T09:50:23.636Z,62.35
2022-11-20T09:55:22.578Z,62.22
2022-11-20T10:00:18.706Z,61.98
2022-11-20T10:05:28.355Z,62.29
2022-11-20T10:10:32.662Z,62.35
2022-11-20T10:15:44.173Z,62.23
2022-11-20T10:20:37.600Z,62.54
2022-11-20T10:25:59.850Z,62.99
2022-11-20T10:31:36.543Z,62.78
2022-11-20T10:36:37.921Z,62.85
2022-11-20T10:41:40.307Z,62.83
2022-11-20T10:46:47.694Z,62.81
2022-11-20T10:51:54.949Z,63.17
2022-11-20T10:56:52.151Z,62.68
2022-11-20T11:01:46.193Z,62.94
2022-11-20T11:06:49.325Z,62.96
2022-11-20T11:11:42.849Z,62.79
2022-11-20T11:16:36.186Z,62.11
2022-11-20T11:21:29.674Z,62.56
2022-11-20T11:26:26.232Z,62.69
2022-11-20T11:31:28.239Z,63.36
2022-11-20T11:36:27.893Z,62.80
2022-11-20T11:41:30.003Z,62.03
2022-11-20T11:46:22.817Z,61.91
2022-11-20T11:51:22.284Z,61.42
2022-11-20T11:56:16.751Z,61.89
2022-11-20T12:01:29.423Z,62.08
2022-11-20T12:06:27.849Z,62.54
2022-11-20T12:11:32.879Z,62.42
2022-11-20T12:16:27.645Z,61.24
2022-11-20T12:21:45.819Z,60.73
2022-11-20T12:26:56.847Z,60.75
2022-11-20T12:32:09.074Z,60.71
2022-11-20T12:37:53.266Z,60.16
2022-11-20T12:43:16.351Z,60.74
2022-11-20T12:48:39.256Z,61.21
2022-11-20T12:53:45.651Z,61.72
2022-11-20T12:58:45.142Z,62.04
2022-11-20T13:03:55.212Z,62.23
2022-11-20T13:09:14.560Z,62.60
2022-11-20T13:14:31.302Z,62.91
2022-11-20T13:19:26.454Z,62.93
2022-11-20T13:24:25.346Z,63.26
2022-11-20T13:29:24.497Z,63.33
2022-11-20T13:34:30.152Z,63.49
2022-11-20T13:39:31.916Z,63.58
2022-11-20T13:44:49.793Z,63.78
2022-11-20T13:49:46.625Z,63.80
2022-11-20T13:54:53.445Z,64.16
2022-11-20T14:00:13.944Z,64.30
2022-11-20T14:05:14.970Z,64.19
2022-11-20T14:10:41.682Z,64.71
2022-11-20T14:15:41.800Z,62.66
2022-11-20T14:20:41.545Z,62.70
2022-11-20T14:25:35.453Z,62.77
2022-11-20T14:30:37.538Z,54.34
2022-11-20T14:35:34.288Z,61.47
2022-11-20T14:40:32.182Z,61.36
2022-11-20T14:45:25.153Z,60.54
2022-11-20T14:50:27.474Z,59.47
2022-11-20T14:55:58.828Z,58.38
2022-11-20T15:00:58.193Z,57.49
2022-11-20T15:05:52.930Z,57.05
2022-11-20T15:10:51.192Z,55.48
2022-11-20T15:15:47.027Z,56.03
2022-11-20T15:20:44.674Z,56.32
2022-11-20T15:25:40.732Z,56.82
2022-11-20T15:30:35.600Z,56.70
2022-11-20T15:35:30.033Z,57.19
2022-11-20T15:40:22.659Z,56.80
2022-11-20T15:45:17.573Z,56.76
2022-11-20T15:50:19.637Z,57.59
2022-11-20T15:55:13.713Z,58.48
2022-11-20T16:00:11.152Z,58.96
2022-11-20T16:05:06.463Z,59.42
2022-11-20T16:10:00.311Z,59.67
2022-11-20T16:15:13.731Z,59.94
2022-11-20T16:20:07.439Z,60.23
2022-11-20T16:25:04.827Z,60.48
2022-11-20T16:29:58.177Z,60.28
2022-11-20T16:34:52.361Z,60.27
2022-11-20T16:39:46.357Z,60.32
2022-11-20T16:44:41.530Z,60.29
2022-11-20T16:49:34.794Z,60.56
2022-11-20T16:54:27.713Z,60.26
2022-11-20T16:59:21.581Z,60.66
2022-11-20T17:04:15.565Z,60.60
2022-11-20T17:09:11.926Z,60.70
2022-11-20T17:14:07.853Z,60.90
2022-11-20T17:19:03.634Z,60.54
2022-11-20T17:23:57.460Z,60.63
2022-11-20T17:28:56.829Z,60.55
2022-11-20T17:33:54.597Z,60.22
2022-11-20T17:38:48.362Z,60.44
2022-11-20T17:43:49.683Z,60.44
2022-11-20T17:48:45.105Z,60.82
2022-11-20T17:53:40.963Z,60.81
2022-11-20T17:58:34.288Z,60.44
2022-11-20T18:03:28.688Z,60.19
2022-11-20T18:08:22.791Z,60.47
2022-11-20T18:13:16.611Z,59.71
2022-11-20T18:18:10.115Z,59.08
2022-11-20T18:23:03.715Z,59.21
2022-11-20T18:27:57.780Z,59.28
2022-11-20T18:32:51.095Z,58.98
2022-11-20T18:37:44.783Z,59.00
2022-11-20T18:42:57.566Z,58.87
2022-11-20T18:47:51.405Z,59.56
2022-11-20T18:52:45.580Z,50.89
2022-11-20T18:57:39.294Z,48.50
2022-11-20T19:02:35.486Z,54.12
2022-11-20T19:07:32.657Z,55.07
2022-11-20T19:12:27.688Z,50.05
2022-11-20T19:17:21.998Z,52.83
2022-11-20T19:22:15.712Z,54.49
2022-11-20T19:27:08.795Z,54.41
2022-11-20T19:32:04.723Z,54.56
2022-11-20T19:36:59.739Z,55.21
2022-11-20T19:41:53.783Z,51.56
2022-11-20T19:46:47.663Z,52.81
2022-11-20T19:51:47.082Z,53.99
2022-11-20T19:56:39.640Z,55.26
2022-11-20T20:01:34.255Z,56.18
2022-11-20T20:06:28.237Z,56.54
2022-11-20T20:11:23.601Z,56.80
2022-11-20T20:16:19.886Z,56.82
2022-11-20T20:21:22.986Z,57.20
2022-11-20T20:26:16.570Z,57.26
2022-11-20T20:31:30.904Z,56.84
2022-11-20T20:36:25.799Z,54.02
2022-11-20T20:41:24.301Z,51.62
2022-11-20T20:46:18.094Z,49.72
2022-11-20T20:51:11.726Z,50.84
2022-11-20T20:56:06.080Z,49.79
2022-11-20T21:01:23.375Z,51.21
2022-11-20T21:06:17.080Z,52.23
2022-11-20T21:11:15.874Z,53.15
2022-11-20T21:16:09.437Z,53.90
2022-11-20T21:21:25.105Z,54.62
2022-11-20T21:26:19.050Z,54.84
2022-11-20T21:31:15.725Z,55.12
2022-11-20T21:36:10.286Z,55.23
2022-11-20T21:41:06.750Z,55.60
2022-11-20T21:46:14.354Z,55.86
2022-11-20T21:51:12.819Z,56.56
2022-11-20T21:56:08.243Z,56.76
2022-11-20T22:01:18.336Z,57.05
2022-11-20T22:06:13.086Z,57.01
2022-11-20T22:11:10.633Z,57.14
2022-11-20T22:16:04.517Z,57.18
2022-11-20T22:20:58.071Z,57.22
2022-11-20T22:25:51.886Z,57.61
2022-11-20T22:30:45.661Z,57.07
2022-11-20T22:35:39.307Z,57.56
2022-11-20T22:40:33.311Z,57.66
2022-11-20T22:45:27.165Z,57.55
2022-11-20T22:50:21.447Z,57.65
2022-11-20T22:55:16.410Z,57.71
2022-11-20T23:00:13.623Z,57.58
2022-11-20T23:05:08.875Z,57.56
2022-11-20T23:10:03.172Z,57.72
2022-11-20T23:14:56.115Z,57.75
2022-11-20T23:19:49.183Z,57.55
2022-11-20T23:24:43.069Z,57.62
2022-11-20T23:29:36.948Z,57.66
2022-11-20T23:34:30.770Z,57.44
2022-11-20T23:39:23.986Z,57.45
2022-11-20T23:44:16.422Z,57.44
2022-11-20T23:49:11.025Z,57.70
2022-11-20T23:54:05.184Z,57.60
2022-11-20T23:58:59.361Z,57.39
